Time;durP1;ratioP1;P1;durP2;ratioP2;P2;SDS_P1;SDS_P2;PMS_P1;PMS_P2;Temp;Humidity;BMP_temperature;BMP_pressure;BME280_temperature;BME280_humidity;BME280_pressure;Samples;Min_cycle;Max_cycle;Signal;HPM_P1;HPM_P2
2021/10/05 00:07:16;;;;;;;;;85.00;84.00;;;;;;;;2;234070480;234070480;-77
2021/10/05 00:16:16;;;;;;;;;77.50;74.00;;;;;;;;2;279084258;279084258;-77
2021/10/05 00:24:58;;;;;;;;;68.00;61.00;;;;;;;;2;234069922;234069922;-78
2021/10/05 00:33:59;;;;;;;;;106.50;106.50;;;;;;;;2;279082243;279082243;-77
2021/10/05 00:42:42;;;;;;;;;66.00;59.00;;;;;;;;2;234068062;234068062;-77
2021/10/05 00:51:42;;;;;;;;;78.50;74.50;;;;;;;;2;279083099;279083099;-78
2021/10/05 01:00:25;;;;;;;;;82.00;82.00;;;;;;;;2;234070074;234070074;-79
2021/10/05 01:09:26;;;;;;;;;95.00;95.00;;;;;;;;2;279080974;279080974;-78
2021/10/05 01:18:08;;;;;;;;;70.50;66.00;;;;;;;;2;234069278;234069278;-78
2021/10/05 01:27:10;;;;;;;;;103.00;103.00;;;;;;;;2;279081122;279081122;-78
2021/10/05 01:35:53;;;;;;;;;105.00;105.00;;;;;;;;2;234069436;234069436;-78
2021/10/05 01:44:55;;;;;;;;;82.50;81.00;;;;;;;;2;279081258;279081258;-78
2021/10/05 01:53:38;;;;;;;;;88.00;88.00;;;;;;;;2;234071223;234071223;-77
2021/10/05 02:02:38;;;;;;;;;72.00;67.00;;;;;;;;2;279081024;279081024;-77
2021/10/05 02:11:21;;;;;;;;;81.50;76.50;;;;;;;;2;234069073;234069073;-78
2021/10/05 02:20:21;;;;;;;;;80.50;76.00;;;;;;;;2;279080758;279080758;-78
2021/10/05 02:29:04;;;;;;;;;73.50;68.00;;;;;;;;2;234069968;234069968;-78
2021/10/05 02:38:05;;;;;;;;;76.50;71.50;;;;;;;;2;279078580;279078580;-78
2021/10/05 02:46:47;;;;;;;;;80.00;74.50;;;;;;;;2;234070551;234070551;-78
2021/10/05 02:55:49;;;;;;;;;79.50;75.50;;;;;;;;2;279080308;279080308;-77
2021/10/05 03:04:31;;;;;;;;;85.50;83.00;;;;;;;;2;234068865;234068865;-78
2021/10/05 03:13:35;;;;;;;;;90.50;90.50;;;;;;;;2;279083735;279083735;-78
2021/10/05 03:22:18;;;;;;;;;78.50;74.00;;;;;;;;2;234066794;234066794;-78
2021/10/05 03:31:18;;;;;;;;;91.00;91.00;;;;;;;;2;279080570;279080570;-78
2021/10/05 03:40:01;;;;;;;;;100.50;100.50;;;;;;;;2;234067689;234067689;-78
2021/10/05 03:49:02;;;;;;;;;83.50;83.50;;;;;;;;2;279081171;279081171;-77
2021/10/05 03:57:44;;;;;;;;;88.00;88.00;;;;;;;;2;234068778;234068778;-78
2021/10/05 04:06:45;;;;;;;;;111.00;111.00;;;;;;;;2;279078420;279078420;-77
2021/10/05 04:15:27;;;;;;;;;103.00;103.00;;;;;;;;2;234069070;234069070;-77
2021/10/05 04:24:28;;;;;;;;;83.00;83.00;;;;;;;;2;279080435;279080435;-78
2021/10/05 04:33:10;;;;;;;;;107.00;107.00;;;;;;;;2;234068756;234068756;-77
2021/10/05 04:42:11;;;;;;;;;98.50;98.50;;;;;;;;2;279082456;279082456;-77
2021/10/05 04:50:53;;;;;;;;;97.00;97.00;;;;;;;;2;234069445;234069445;-78
2021/10/05 04:59:54;;;;;;;;;83.50;83.50;;;;;;;;2;279078706;279078706;-78
2021/10/05 05:08:37;;;;;;;;;66.00;57.50;;;;;;;;2;234072440;234072440;-78
2021/10/05 05:17:37;;;;;;;;;65.50;59.00;;;;;;;;2;279079421;279079421;-78
2021/10/05 05:26:20;;;;;;;;;75.50;71.50;;;;;;;;2;234069987;234069987;-77
2021/10/05 05:35:20;;;;;;;;;109.00;109.00;;;;;;;;2;279082952;279082952;-77
2021/10/05 05:44:03;;;;;;;;;71.50;65.00;;;;;;;;2;234067444;234067444;-78
2021/10/05 05:53:04;;;;;;;;;78.00;74.00;;;;;;;;2;279081548;279081548;-78
2021/10/05 06:01:46;;;;;;;;;73.50;68.00;;;;;;;;2;234068490;234068490;-82
2021/10/05 06:10:47;;;;;;;;;75.00;71.00;;;;;;;;2;279082296;279082296;-80
2021/10/05 06:19:30;;;;;;;;;73.00;67.00;;;;;;;;2;234070111;234070111;-78
2021/10/05 06:28:30;;;;;;;;;70.00;65.00;;;;;;;;2;279081181;279081181;-78
2021/10/05 06:37:13;;;;;;;;;78.50;76.00;;;;;;;;2;234067883;234067883;-78
2021/10/05 06:46:13;;;;;;;;;58.50;50.00;;;;;;;;2;279080742;279080742;-78
2021/10/05 06:54:56;;;;;;;;;65.50;59.00;;;;;;;;2;234067969;234067969;-79
2021/10/05 07:03:56;;;;;;;;;67.50;60.50;;;;;;;;2;279082487;279082487;-79
2021/10/05 07:12:39;;;;;;;;;63.50;55.50;;;;;;;;2;234068971;234068971;-80
2021/10/05 07:21:42;;;;;;;;;71.50;64.50;;;;;;;;2;279078454;279078454;-81
2021/10/05 07:30:25;;;;;;;;;70.50;64.00;;;;;;;;2;234069249;234069249;-83
2021/10/05 07:39:26;;;;;;;;;65.50;58.50;;;;;;;;2;279082519;279082519;-79
2021/10/05 07:48:09;;;;;;;;;76.50;73.00;;;;;;;;2;234069494;234069494;-79
2021/10/05 07:57:09;;;;;;;;;107.00;107.00;;;;;;;;2;279080770;279080770;-79
2021/10/05 08:05:52;;;;;;;;;119.00;119.00;;;;;;;;2;234067761;234067761;-80
2021/10/05 08:14:53;;;;;;;;;118.00;118.00;;;;;;;;2;279080524;279080524;-80
2021/10/05 08:23:35;;;;;;;;;55.50;47.00;;;;;;;;2;234069171;234069171;-82
2021/10/05 08:32:57;;;;;;;;;73.00;68.00;;;;;;;;2;279081363;279081363;-81
2021/10/05 08:42:00;;;;;;;;;67.50;63.00;;;;;;;;2;234068665;234068665;-81
2021/10/05 08:51:02;;;;;;;;;76.50;72.00;;;;;;;;2;279081229;279081229;-81
2021/10/05 08:59:45;;;;;;;;;106.50;106.50;;;;;;;;2;234068875;234068875;-80
2021/10/05 09:08:46;;;;;;;;;63.50;55.00;;;;;;;;2;279082254;279082254;-79
2021/10/05 09:17:29;;;;;;;;;84.50;84.50;;;;;;;;2;234068117;234068117;-79
2021/10/05 09:26:39;;;;;;;;;86.00;86.00;;;;;;;;2;279078613;279078613;-81
2021/10/05 09:44:52;;;;;;;;;63.00;54.50;;;;;;;;2;279079839;279079839;-79
2021/10/05 09:53:35;;;;;;;;;65.50;59.00;;;;;;;;2;234069934;234069934;-79
2021/10/05 10:02:37;;;;;;;;;79.00;75.00;;;;;;;;2;279081101;279081101;-79
2021/10/05 10:11:20;;;;;;;;;92.00;92.00;;;;;;;;2;234069133;234069133;-79
2021/10/05 10:20:25;;;;;;;;;90.00;90.00;;;;;;;;2;279080772;279080772;-80
2021/10/05 10:32:26;;;;;;;;;67.50;59.50;;;;;;;;2;234069821;234069821;-80
2021/10/05 10:41:27;;;;;;;;;94.00;94.00;;;;;;;;2;279080384;279080384;-80
2021/10/05 10:50:11;;;;;;;;;96.00;96.00;;;;;;;;2;234067350;234067350;-80
2021/10/05 10:59:13;;;;;;;;;77.00;73.50;;;;;;;;2;279082379;279082379;-81
2021/10/05 11:07:58;;;;;;;;;;;;;;;;;;2;234068834;234068834;-81
2021/10/05 11:17:00;;;;;;;;;62.00;56.50;;;;;;;;2;279082435;279082435;-82
2021/10/05 11:25:56;;;;;;;;;72.50;66.50;;;;;;;;2;234065836;234065836;-81
2021/10/05 11:34:57;;;;;;;;;71.50;66.00;;;;;;;;2;279080067;279080067;-81
2021/10/05 11:43:41;;;;;;;;;74.00;69.50;;;;;;;;2;234068619;234068619;-80
2021/10/05 11:52:42;;;;;;;;;68.50;61.00;;;;;;;;2;279081483;279081483;-82
2021/10/05 12:01:27;;;;;;;;;61.00;54.00;;;;;;;;2;234066308;234066308;-82
2021/10/05 12:10:28;;;;;;;;;72.00;66.00;;;;;;;;2;279083725;279083725;-79
2021/10/05 12:19:12;;;;;;;;;74.50;69.00;;;;;;;;2;234067826;234067826;-80
2021/10/05 12:28:12;;;;;;;;;64.50;58.50;;;;;;;;2;279078939;279078939;-81
2021/10/05 12:36:57;;;;;;;;;62.00;54.00;;;;;;;;2;234068495;234068495;-81
2021/10/05 12:45:58;;;;;;;;;72.50;66.50;;;;;;;;2;279079909;279079909;-80
2021/10/05 12:54:40;;;;;;;;;65.50;56.50;;;;;;;;2;234068454;234068454;-79
2021/10/05 13:03:41;;;;;;;;;72.50;66.50;;;;;;;;2;279083046;279083046;-81
2021/10/05 13:12:23;;;;;;;;;71.00;63.50;;;;;;;;2;234069779;234069779;-80
2021/10/05 13:21:24;;;;;;;;;74.00;68.50;;;;;;;;2;279082149;279082149;-82
2021/10/05 13:30:08;;;;;;;;;76.00;71.50;;;;;;;;2;234069992;234069992;-80
2021/10/05 13:39:09;;;;;;;;;54.00;46.00;;;;;;;;2;279080868;279080868;-81
2021/10/05 13:47:53;;;;;;;;;74.00;68.00;;;;;;;;2;234069494;234069494;-82
2021/10/05 13:57:26;;;;;;;;;67.50;59.50;;;;;;;;2;279081170;279081170;-82
2021/10/05 14:15:48;;;;;;;;;77.00;75.00;;;;;;;;2;279088890;279088890;-84
2021/10/05 14:24:30;;;;;;;;;91.00;91.00;;;;;;;;2;234069181;234069181;-84
2021/10/05 14:33:31;;;;;;;;;71.50;65.50;;;;;;;;2;279082043;279082043;-86
2021/10/05 14:42:13;;;;;;;;;102.50;102.50;;;;;;;;2;234068932;234068932;-86
2021/10/05 14:51:14;;;;;;;;;112.00;112.00;;;;;;;;2;279084107;279084107;-83
2021/10/05 14:59:57;;;;;;;;;97.50;97.50;;;;;;;;2;234066650;234066650;-83
2021/10/05 15:08:58;;;;;;;;;76.00;72.00;;;;;;;;2;279080658;279080658;-83
2021/10/05 15:17:40;;;;;;;;;94.00;94.00;;;;;;;;2;234068407;234068407;-83
2021/10/05 15:26:41;;;;;;;;;71.50;63.50;;;;;;;;2;279079684;279079684;-79
2021/10/05 15:35:24;;;;;;;;;73.50;69.00;;;;;;;;2;234069927;234069927;-78
2021/10/05 15:44:24;;;;;;;;;67.50;58.00;;;;;;;;2;279079849;279079849;-80
2021/10/05 15:53:07;;;;;;;;;74.00;69.00;;;;;;;;2;234067545;234067545;-79
2021/10/05 16:02:07;;;;;;;;;75.00;71.00;;;;;;;;2;279080522;279080522;-79
2021/10/05 16:10:50;;;;;;;;;77.00;73.50;;;;;;;;2;234067850;234067850;-80
2021/10/05 16:19:51;;;;;;;;;68.50;60.00;;;;;;;;2;279081788;279081788;-80
2021/10/05 16:28:34;;;;;;;;;93.00;93.00;;;;;;;;2;234068571;234068571;-79
2021/10/05 16:37:34;;;;;;;;;70.50;64.00;;;;;;;;2;279082220;279082220;-79
2021/10/05 16:46:18;;;;;;;;;76.00;71.00;;;;;;;;2;234069332;234069332;-80
2021/10/05 16:55:19;;;;;;;;;75.00;70.00;;;;;;;;2;279078976;279078976;-79
2021/10/05 17:04:02;;;;;;;;;88.00;87.50;;;;;;;;2;234070358;234070358;-80
2021/10/05 17:13:02;;;;;;;;;73.00;67.50;;;;;;;;2;279080138;279080138;-80
2021/10/05 17:21:46;;;;;;;;;93.00;93.00;;;;;;;;2;234070384;234070384;-79
2021/10/05 17:30:49;;;;;;;;;69.50;61.00;;;;;;;;2;279080399;279080399;-81
2021/10/05 17:39:32;;;;;;;;;71.50;64.00;;;;;;;;2;234068138;234068138;-80
2021/10/05 17:48:32;;;;;;;;;98.00;98.00;;;;;;;;2;279079855;279079855;-87
2021/10/05 17:57:18;;;;;;;;;67.50;60.00;;;;;;;;2;234072203;234072203;-88
2021/10/05 18:07:04;;;;;;;;;94.00;94.00;;;;;;;;2;279081952;279081952;-86
2021/10/05 18:15:38;;;;;;;;;79.50;75.00;;;;;;;;2;234069632;234069632;-87
2021/10/05 18:24:39;;;;;;;;;101.00;101.00;;;;;;;;2;279080409;279080409;-95
2021/10/05 18:33:45;;;;;;;;;77.50;73.00;;;;;;;;2;234070017;234070017;-84
2021/10/05 18:43:07;;;;;;;;;;;;;;;;;;;;;
2021/10/05 18:51:50;;;;;;;;;119.50;119.50;;;;;;;;2;234096732;234096732;-82
2021/10/05 19:00:53;;;;;;;;;76.00;72.00;;;;;;;;2;279080998;279080998;-85
2021/10/05 19:09:46;;;;;;;;;;;;;;;;;;;;;
2021/10/05 19:18:48;;;;;;;;;106.00;106.00;;;;;;;;2;279105032;279105032;-93
2021/10/05 19:28:25;;;;;;;;;85.50;82.50;;;;;;;;2;234070420;234070420;-89
2021/10/05 19:37:01;;;;;;;;;79.50;76.00;;;;;;;;2;279083942;279083942;-86
2021/10/05 19:45:44;;;;;;;;;78.50;74.50;;;;;;;;2;234066413;234066413;-83
2021/10/05 19:54:44;;;;;;;;;82.00;78.50;;;;;;;;2;279079321;279079321;-83
2021/10/05 20:03:27;;;;;;;;;91.00;91.00;;;;;;;;2;234069454;234069454;-86
2021/10/05 20:12:27;;;;;;;;;80.50;76.50;;;;;;;;2;279082868;279082868;-87
2021/10/05 20:21:10;;;;;;;;;86.00;85.50;;;;;;;;2;234069712;234069712;-87
2021/10/05 20:30:11;;;;;;;;;73.00;67.50;;;;;;;;2;279082836;279082836;-86
2021/10/05 20:38:53;;;;;;;;;85.50;85.00;;;;;;;;2;234068663;234068663;-86
2021/10/05 20:47:54;;;;;;;;;89.00;88.50;;;;;;;;2;279081956;279081956;-86
2021/10/05 20:56:36;;;;;;;;;84.50;82.00;;;;;;;;2;234068164;234068164;-87
2021/10/05 21:05:38;;;;;;;;;83.00;80.50;;;;;;;;2;279077943;279077943;-87
2021/10/05 21:14:21;;;;;;;;;100.50;100.50;;;;;;;;2;234069499;234069499;-90
2021/10/05 21:23:22;;;;;;;;;83.00;82.00;;;;;;;;2;279080504;279080504;-87
2021/10/05 21:32:04;;;;;;;;;91.00;91.00;;;;;;;;2;234069746;234069746;-84
2021/10/05 21:41:05;;;;;;;;;88.00;87.00;;;;;;;;2;279082619;279082619;-85
2021/10/05 21:49:47;;;;;;;;;100.50;100.50;;;;;;;;2;234069201;234069201;-85
2021/10/05 21:58:48;;;;;;;;;89.00;89.00;;;;;;;;2;279082147;279082147;-86
2021/10/05 22:07:31;;;;;;;;;84.50;84.00;;;;;;;;2;234068694;234068694;-79
2021/10/05 22:16:32;;;;;;;;;88.00;87.00;;;;;;;;2;279081435;279081435;-79
2021/10/05 22:25:15;;;;;;;;;85.50;82.50;;;;;;;;2;234069394;234069394;-79
2021/10/05 22:34:18;;;;;;;;;79.50;75.00;;;;;;;;2;279081820;279081820;-79
2021/10/05 22:43:01;;;;;;;;;93.50;93.50;;;;;;;;2;234068473;234068473;-79
2021/10/05 22:52:02;;;;;;;;;77.50;73.50;;;;;;;;2;279082733;279082733;-79
2021/10/05 23:00:45;;;;;;;;;92.00;92.00;;;;;;;;2;234069066;234069066;-79
2021/10/05 23:09:47;;;;;;;;;90.50;90.50;;;;;;;;2;279082837;279082837;-79
2021/10/05 23:18:29;;;;;;;;;87.00;85.00;;;;;;;;2;234066946;234066946;-80
2021/10/05 23:27:30;;;;;;;;;81.50;78.50;;;;;;;;2;279084115;279084115;-81
2021/10/05 23:36:12;;;;;;;;;80.50;77.00;;;;;;;;2;234068305;234068305;-80
2021/10/05 23:45:13;;;;;;;;;85.50;84.00;;;;;;;;2;279079754;279079754;-81
2021/10/05 23:53:55;;;;;;;;;82.00;78.50;;;;;;;;2;234067570;234067570;-81
